Twentynine Palms (Self) Airport
KNXP : rendu visible

Aérodrome :











RETROUVEZ-NOUS SUR...

 
LOGIN :

S'inscrire | Disclaimer

   EN    FR    IT 

 









Légende :    VFR   VFR Marginal   IFR   IFR Intensif   IFR Très Intensif
Visi : 
Plafond : 
>= 8 km
>= 3000ft
5 à 8 km
1000 à 3000 ft
1500m à 5 km
500 à 1000 ft
800 à 1500m
200 à 500 ft
< 800m
< 200 ft
Symboles :   Orages  Brouillard  Fortes neiges  Fortes précipitations  Vent > 20 kt






- Altitude de l'aérodrome : 2051 ft


KNXP - Twentynine Palms (Self)

DERNIER METAR :
  • 231056Z AUTO 30011KT 10SM FEW065 BKN100 11/04 A3011 RMK AO2 SLP175 T01110044

METARs EXPIRÉS :
  • 230956Z AUTO 29011KT 10SM OVC065 11/04 A3012 RMK AO2 SLP179 T01110044
  • 230856Z AUTO 26006KT 10SM OVC055 11/05 A3012 RMK AO2 SLP177 T01110050 53005

TAF TAF KNXP
Valide du 23 à 09h jusqu'au 24 à 09h UTC


2309/2409 30012KT 9999 SCT080 BKN100 QNH2995INS
BECMG 2318/2320 35015G20KT 9999 SKC QNH3002INS T08/2312Z T18/2321Z



MET'MAP, la Météo Aéronautique d'un coup d'oeil ! - Copyright ORBIFLY Décembre 2007 - Disclaimer

ORBIFLY MET'MAP TEAM :

Programmation & Développement : Alexandra Zaïnal
Sur une idée originale de : Baudouin d'Aumeries
Assistance à la programmation : Marc-Olivier Méhu
Soutien technique & logistique : Manuel Goepfert

Contact : metmap@orbifly.com




SOURCES & CREDITS :

   NOAA       Earth
Advisory